createdAt,value
2022-10-11T00:00:37.161Z,89.85
2022-10-11T00:03:08.469Z,89.85
2022-10-11T00:05:40.188Z,89.48
2022-10-11T00:08:12.290Z,89.42
2022-10-11T00:10:43.757Z,89.56
2022-10-11T00:13:15.010Z,89.64
2022-10-11T00:15:46.261Z,89.52
2022-10-11T00:18:17.617Z,89.66
2022-10-11T00:20:49.033Z,89.64
2022-10-11T00:23:20.390Z,89.74
2022-10-11T00:26:03.705Z,89.77
2022-10-11T00:28:36.402Z,89.21
2022-10-11T00:31:13.518Z,89.73
2022-10-11T00:33:45.178Z,89.95
2022-10-11T00:36:17.055Z,89.73
2022-10-11T00:38:48.557Z,89.74
2022-10-11T00:41:19.859Z,89.50
2022-10-11T00:44:23.901Z,89.53
2022-10-11T00:47:12.387Z,89.90
2022-10-11T00:49:55.466Z,89.52
2022-10-11T00:52:31.809Z,89.54
2022-10-11T00:55:06.694Z,89.66
2022-10-11T00:57:41.890Z,89.44
2022-10-11T01:00:15.576Z,89.35
2022-10-11T01:02:47.152Z,89.46
2022-10-11T01:05:29.155Z,89.51
2022-10-11T01:08:02.488Z,89.45
2022-10-11T01:10:35.326Z,89.37
2022-10-11T01:13:35.341Z,89.40
2022-10-11T01:16:33.921Z,89.50
2022-10-11T01:19:05.226Z,89.54
2022-10-11T01:21:51.313Z,89.39
2022-10-11T01:24:52.781Z,89.45
2022-10-11T01:27:49.195Z,89.56
2022-10-11T01:30:34.985Z,89.62
2022-10-11T01:33:29.992Z,89.54
2022-10-11T01:36:37.623Z,89.67
2022-10-11T01:39:20.675Z,89.81
2022-10-11T01:41:57.869Z,89.97
2022-10-11T01:44:30.645Z,89.93
2022-10-11T01:47:01.989Z,90.58
2022-10-11T01:49:33.742Z,90.64
2022-10-11T01:52:07.526Z,90.57
2022-10-11T01:55:09.150Z,90.59
2022-10-11T01:58:03.972Z,90.44
2022-10-11T02:00:52.162Z,90.16
2022-10-11T02:07:34.166Z,89.83
2022-10-11T02:10:17.570Z,89.89
2022-10-11T02:12:58.050Z,90.32
2022-10-11T02:15:34.073Z,90.38
2022-10-11T02:18:09.222Z,90.58
2022-10-11T02:20:42.714Z,90.54
2022-10-11T02:23:18.951Z,90.44
2022-10-11T02:25:51.808Z,90.67
2022-10-11T02:28:28.775Z,90.44
2022-10-11T02:31:02.524Z,90.33
2022-10-11T02:33:40.298Z,90.20
2022-10-11T02:36:19.474Z,90.30
2022-10-11T02:38:55.838Z,90.43
2022-10-11T02:41:32.245Z,90.35
2022-10-11T02:44:09.189Z,90.67
2022-10-11T02:46:42.963Z,91.15
2022-10-11T02:49:16.318Z,91.39
2022-10-11T02:51:47.637Z,91.81
2022-10-11T02:54:18.901Z,91.98
2022-10-11T02:56:50.245Z,92.29
2022-10-11T02:59:21.532Z,92.25
2022-10-11T03:01:52.896Z,92.59
2022-10-11T03:04:24.249Z,92.88
2022-10-11T03:06:55.620Z,92.79
2022-10-11T03:09:26.914Z,92.83
2022-10-11T03:11:58.336Z,92.31
2022-10-11T03:14:29.673Z,92.14
2022-10-11T03:17:23.820Z,91.98
2022-10-11T03:19:52.297Z,91.32
2022-10-11T03:22:23.621Z,91.23
2022-10-11T03:24:57.461Z,90.89
2022-10-11T03:27:32.589Z,90.96
2022-10-11T03:30:04.757Z,91.02
2022-10-11T03:32:36.117Z,90.84
2022-10-11T03:35:07.985Z,90.88
2022-10-11T03:37:39.257Z,90.78
2022-10-11T03:40:13.488Z,90.62
2022-10-11T03:42:44.947Z,90.45
2022-10-11T03:45:16.256Z,90.36
2022-10-11T03:47:47.582Z,90.27
2022-10-11T03:50:18.849Z,90.54
2022-10-11T03:52:50.582Z,90.02
2022-10-11T03:55:21.882Z,90.06
2022-10-11T03:57:53.371Z,89.79
2022-10-11T04:00:24.817Z,90.12
2022-10-11T04:02:56.287Z,89.59
2022-10-11T04:05:27.549Z,89.74
2022-10-11T04:07:58.839Z,89.86
2022-10-11T04:10:31.394Z,89.70
2022-10-11T04:13:02.694Z,89.96
2022-10-11T04:15:33.983Z,89.87
2022-10-11T04:18:06.381Z,89.69
2022-10-11T04:20:37.697Z,90.09
2022-10-11T04:23:09.045Z,89.54
2022-10-11T04:25:40.537Z,89.52
2022-10-11T04:28:11.963Z,89.60
2022-10-11T04:30:43.398Z,89.54
2022-10-11T04:33:14.723Z,89.55
2022-10-11T04:35:45.996Z,89.79
2022-10-11T04:38:17.377Z,89.77
2022-10-11T04:40:48.833Z,90.39
2022-10-11T04:43:20.323Z,90.36
2022-10-11T04:45:55.347Z,90.96
2022-10-11T04:48:26.944Z,91.27
2022-10-11T04:50:58.235Z,92.19
2022-10-11T04:53:29.876Z,92.22
2022-10-11T04:56:05.511Z,92.30
2022-10-11T04:58:40.739Z,92.09
2022-10-11T05:01:12.038Z,92.68
2022-10-11T05:03:43.292Z,92.99
2022-10-11T05:06:14.767Z,92.95
2022-10-11T05:08:46.089Z,93.47
2022-10-11T05:11:17.736Z,93.26
2022-10-11T05:13:49.157Z,93.36
2022-10-11T05:16:20.413Z,93.88
2022-10-11T05:18:52.006Z,93.40
2022-10-11T05:21:26.645Z,93.57
2022-10-11T05:23:58.222Z,93.57
2022-10-11T05:26:29.538Z,93.78
2022-10-11T05:29:01.007Z,93.69
2022-10-11T05:31:33.055Z,93.49
2022-10-11T05:34:04.580Z,93.88
2022-10-11T05:36:35.935Z,93.99
2022-10-11T05:39:07.295Z,93.76
2022-10-11T05:41:38.625Z,93.77
2022-10-11T05:44:10.062Z,94.19
2022-10-11T05:46:41.381Z,94.04
2022-10-11T05:49:12.765Z,93.99
2022-10-11T05:51:44.174Z,94.06
2022-10-11T05:54:15.513Z,93.93
2022-10-11T05:56:46.768Z,94.02
2022-10-11T05:59:18.049Z,93.88
2022-10-11T06:01:49.414Z,93.69
2022-10-11T06:04:20.768Z,94.11
2022-10-11T06:06:52.262Z,93.81
2022-10-11T06:09:23.564Z,93.78
2022-10-11T06:11:54.861Z,94.01
2022-10-11T06:14:26.522Z,94.07
2022-10-11T06:16:57.863Z,93.74
2022-10-11T06:19:29.195Z,93.90
2022-10-11T06:22:00.553Z,93.88
2022-10-11T06:24:31.827Z,93.36
2022-10-11T06:27:03.292Z,93.17
2022-10-11T06:29:35.176Z,93.42
2022-10-11T06:32:06.762Z,92.77
2022-10-11T06:34:38.336Z,92.49
2022-10-11T06:37:09.708Z,92.02
2022-10-11T06:39:41.373Z,92.18
2022-10-11T06:42:13.001Z,92.20
2022-10-11T06:44:44.260Z,91.79
2022-10-11T06:47:15.734Z,92.14
2022-10-11T06:49:46.984Z,92.00
2022-10-11T06:52:18.330Z,92.47
2022-10-11T06:54:49.581Z,92.63
2022-10-11T06:57:20.947Z,93.18
2022-10-11T06:59:52.269Z,93.21
2022-10-11T07:02:23.593Z,93.46
2022-10-11T07:04:54.897Z,93.26
2022-10-11T07:07:26.228Z,93.33
2022-10-11T07:09:57.602Z,93.09
2022-10-11T07:12:29.010Z,93.88
2022-10-11T07:15:00.261Z,93.30
2022-10-11T07:17:31.523Z,93.59
2022-10-11T07:20:03.331Z,93.31
2022-10-11T07:22:34.635Z,93.23
2022-10-11T07:25:06.474Z,93.16
2022-10-11T07:27:37.976Z,93.40
2022-10-11T07:30:09.793Z,93.94
2022-10-11T07:32:41.356Z,93.39
2022-10-11T07:35:12.699Z,94.03
2022-10-11T07:37:44.070Z,94.27
2022-10-11T07:40:15.480Z,93.66
2022-10-11T07:42:46.768Z,93.40
2022-10-11T07:45:18.218Z,93.54
2022-10-11T07:47:49.479Z,93.38
2022-10-11T07:50:20.793Z,93.30
2022-10-11T07:52:52.126Z,93.52
2022-10-11T07:55:23.417Z,93.30
2022-10-11T07:57:55.218Z,93.29
2022-10-11T08:00:26.748Z,93.47
2022-10-11T08:02:57.990Z,93.36
2022-10-11T08:05:29.830Z,93.16
2022-10-11T08:08:01.205Z,92.97
2022-10-11T08:10:38.192Z,93.27
2022-10-11T08:13:09.502Z,92.57
2022-10-11T08:15:40.977Z,92.58
2022-10-11T08:18:12.375Z,92.49
2022-10-11T08:20:43.915Z,92.34
2022-10-11T08:23:16.929Z,92.38
2022-10-11T08:25:48.503Z,92.09
2022-10-11T08:28:20.819Z,92.06
2022-10-11T08:30:54.166Z,92.05
2022-10-11T08:33:26.419Z,92.20
2022-10-11T08:35:58.321Z,92.14
2022-10-11T08:38:29.682Z,92.27
2022-10-11T08:41:01.688Z,92.25
2022-10-11T08:43:56.383Z,92.10
2022-10-11T08:46:31.889Z,92.15
2022-10-11T08:49:05.044Z,92.01
2022-10-11T08:52:02.293Z,92.11
2022-10-11T08:55:05.505Z,91.84
2022-10-11T08:57:38.924Z,91.66
2022-10-11T09:00:16.946Z,91.37
2022-10-11T09:03:08.064Z,91.12
2022-10-11T09:05:58.740Z,90.93
2022-10-11T09:08:57.409Z,90.76
2022-10-11T09:11:38.030Z,90.42
2022-10-11T09:14:37.022Z,90.27
2022-10-11T09:17:50.220Z,89.85
2022-10-11T09:20:35.379Z,89.92
2022-10-11T09:23:32.645Z,90.10
2022-10-11T09:26:14.936Z,89.69
2022-10-11T09:29:20.180Z,89.73
2022-10-11T09:31:54.791Z,89.69
2022-10-11T09:34:32.307Z,89.69
2022-10-11T09:37:18.169Z,89.15
2022-10-11T09:40:06.505Z,88.96
2022-10-11T09:42:37.881Z,88.97
2022-10-11T09:45:19.139Z,88.81
2022-10-11T09:47:53.597Z,88.67
2022-10-11T09:50:26.316Z,88.55
2022-10-11T09:53:00.602Z,87.97
2022-10-11T09:55:37.010Z,88.36
2022-10-11T09:58:33.000Z,87.43
2022-10-11T10:01:10.001Z,87.66
2022-10-11T10:03:43.873Z,87.58
2022-10-11T10:06:21.876Z,87.61
2022-10-11T10:08:53.240Z,87.14
2022-10-11T10:11:24.573Z,86.91
2022-10-11T10:13:56.291Z,87.10
2022-10-11T10:16:30.678Z,86.54
2022-10-11T10:19:04.826Z,85.59
2022-10-11T10:21:38.636Z,85.61
2022-10-11T10:24:20.494Z,85.41
2022-10-11T10:27:10.275Z,84.57
2022-10-11T10:29:41.705Z,84.97
2022-10-11T10:32:20.986Z,84.59
2022-10-11T10:35:02.834Z,84.68
2022-10-11T10:37:52.142Z,84.54
2022-10-11T10:40:35.858Z,84.67
2022-10-11T10:43:15.497Z,84.41
2022-10-11T10:46:28.693Z,83.39
2022-10-11T10:52:28.229Z,83.69
2022-10-11T10:55:14.124Z,83.38
2022-10-11T10:58:25.113Z,82.69
2022-10-11T11:01:05.826Z,83.05
2022-10-11T11:04:02.656Z,81.40
2022-10-11T11:06:54.026Z,81.33
2022-10-11T11:09:50.060Z,81.76
2022-10-11T11:12:45.219Z,81.45
2022-10-11T11:15:33.192Z,80.73
2022-10-11T11:18:36.185Z,79.71
2022-10-11T11:21:40.563Z,79.38
2022-10-11T11:24:39.606Z,79.34
2022-10-11T11:27:38.414Z,78.56
2022-10-11T11:30:22.956Z,78.75
2022-10-11T11:33:07.050Z,78.21
2022-10-11T11:35:50.261Z,78.16
2022-10-11T11:38:33.502Z,77.30
2022-10-11T11:41:12.498Z,77.18
2022-10-11T11:44:06.730Z,76.17
2022-10-11T11:46:47.939Z,76.40
2022-10-11T11:49:27.988Z,75.81
2022-10-11T11:52:00.210Z,75.58
2022-10-11T11:55:25.224Z,73.41
2022-10-11T11:58:20.193Z,74.59
2022-10-11T12:01:07.123Z,74.87
2022-10-11T12:03:43.358Z,74.87
2022-10-11T12:06:14.692Z,75.01
2022-10-11T12:09:01.921Z,74.07
2022-10-11T12:11:52.863Z,73.42
2022-10-11T12:14:32.965Z,74.21
2022-10-11T12:17:08.699Z,74.17
2022-10-11T12:19:43.757Z,74.04
2022-10-11T12:22:27.070Z,73.99
2022-10-11T12:25:13.806Z,73.82
2022-10-11T12:27:50.860Z,74.36
2022-10-11T12:30:44.589Z,73.87
2022-10-11T12:33:22.717Z,74.76
2022-10-11T12:35:54.095Z,74.99
2022-10-11T12:38:40.176Z,74.91
2022-10-11T12:41:13.275Z,75.37
2022-10-11T12:43:47.294Z,75.51
2022-10-11T12:46:33.437Z,74.88
2022-10-11T12:49:19.270Z,75.37
2022-10-11T12:52:02.439Z,75.19
2022-10-11T12:55:05.126Z,75.15
2022-10-11T12:58:46.504Z,74.69
2022-10-11T13:01:23.630Z,75.93
2022-10-11T13:04:03.154Z,75.90
2022-10-11T13:06:49.442Z,75.43
2022-10-11T13:09:28.030Z,75.36
2022-10-11T13:12:07.190Z,75.33
2022-10-11T13:14:44.797Z,74.88
2022-10-11T13:17:35.784Z,74.32
2022-10-11T13:20:15.623Z,74.18
2022-10-11T13:22:49.735Z,74.21
2022-10-11T13:25:30.222Z,73.68
2022-10-11T13:28:01.949Z,74.02
2022-10-11T13:30:35.735Z,73.84
2022-10-11T13:33:18.722Z,73.79
2022-10-11T13:35:51.143Z,74.03
2022-10-11T13:38:27.056Z,73.91
2022-10-11T13:41:00.869Z,73.59
2022-10-11T13:43:32.607Z,72.85
2022-10-11T13:46:05.049Z,73.08
2022-10-11T13:48:41.104Z,72.69
2022-10-11T13:51:26.378Z,73.04
2022-10-11T13:54:13.079Z,72.17
2022-10-11T13:56:51.259Z,72.59
2022-10-11T13:59:25.658Z,72.55
2022-10-11T14:02:00.078Z,72.24
2022-10-11T14:04:40.581Z,71.82
2022-10-11T14:07:26.507Z,71.64
2022-10-11T14:09:57.897Z,72.04
2022-10-11T14:12:31.799Z,71.77
2022-10-11T14:15:05.759Z,71.16
2022-10-11T14:17:43.329Z,71.23
2022-10-11T14:20:16.734Z,70.53
2022-10-11T14:22:54.376Z,70.05
2022-10-11T14:25:25.770Z,69.82
2022-10-11T14:27:57.611Z,69.54
2022-10-11T14:30:31.358Z,69.62
2022-10-11T14:33:03.542Z,69.32
2022-10-11T14:35:34.911Z,68.72
2022-10-11T14:38:06.577Z,69.18
2022-10-11T14:40:37.914Z,68.82
2022-10-11T14:43:09.268Z,69.35
2022-10-11T14:45:40.536Z,69.55
2022-10-11T14:48:11.867Z,69.21
2022-10-11T14:50:50.890Z,69.50
2022-10-11T14:53:22.363Z,69.66
2022-10-11T14:55:55.311Z,69.52
2022-10-11T14:58:26.837Z,69.86
2022-10-11T15:00:58.107Z,69.83
2022-10-11T15:03:29.402Z,70.03
2022-10-11T15:06:00.721Z,70.16
2022-10-11T15:08:32.154Z,70.51
2022-10-11T15:11:03.633Z,70.25
2022-10-11T15:13:35.043Z,70.23
2022-10-11T15:16:07.325Z,69.92
2022-10-11T15:18:39.489Z,70.35
2022-10-11T15:21:13.672Z,70.08
2022-10-11T15:23:44.953Z,70.47
2022-10-11T15:26:19.800Z,70.56
2022-10-11T15:28:52.249Z,70.74
2022-10-11T15:31:24.135Z,71.04
2022-10-11T15:33:59.342Z,71.00
2022-10-11T15:36:30.981Z,71.53
2022-10-11T15:39:02.376Z,71.66
2022-10-11T15:41:33.626Z,71.76
2022-10-11T15:44:05.152Z,72.04
2022-10-11T15:46:36.418Z,72.31
2022-10-11T15:49:12.928Z,72.25
2022-10-11T15:51:44.166Z,72.70
2022-10-11T15:54:15.427Z,72.83
2022-10-11T15:56:46.822Z,73.01
2022-10-11T15:59:18.077Z,73.41
2022-10-11T16:01:49.526Z,72.75
2022-10-11T16:04:21.151Z,73.10
2022-10-11T16:06:52.689Z,73.07
2022-10-11T16:09:24.564Z,72.78
2022-10-11T16:11:55.842Z,73.01
2022-10-11T16:14:27.092Z,72.81
2022-10-11T16:17:01.030Z,73.34
2022-10-11T16:19:32.374Z,73.44
2022-10-11T16:22:03.704Z,73.56
2022-10-11T16:24:35.026Z,74.26
2022-10-11T16:27:06.301Z,74.76
2022-10-11T16:29:37.594Z,74.46
2022-10-11T16:32:08.933Z,75.09
2022-10-11T16:34:40.304Z,75.13
2022-10-11T16:37:12.988Z,75.29
2022-10-11T16:39:44.304Z,75.57
2022-10-11T16:42:15.594Z,75.36
2022-10-11T16:44:46.878Z,75.65
2022-10-11T16:47:18.748Z,76.05
2022-10-11T16:49:50.262Z,76.16
2022-10-11T16:52:21.605Z,76.63
2022-10-11T16:54:52.979Z,76.58
2022-10-11T16:57:24.450Z,76.87
2022-10-11T16:59:55.893Z,77.04
2022-10-11T17:02:31.504Z,77.41
2022-10-11T17:05:04.042Z,77.12
2022-10-11T17:07:35.354Z,77.34
2022-10-11T17:10:07.247Z,77.21
2022-10-11T17:12:38.699Z,77.53
2022-10-11T17:15:10.779Z,77.86
2022-10-11T17:17:42.071Z,77.78
2022-10-11T17:20:13.338Z,77.80
2022-10-11T17:22:44.586Z,77.86
2022-10-11T17:25:15.921Z,77.96
2022-10-11T17:27:47.370Z,78.13
2022-10-11T17:30:18.785Z,78.12
2022-10-11T17:32:53.245Z,78.37
2022-10-11T17:35:24.534Z,78.69
2022-10-11T17:37:55.805Z,78.59
2022-10-11T17:40:28.013Z,78.35
2022-10-11T17:42:59.297Z,78.02
2022-10-11T17:45:30.562Z,78.36
2022-10-11T17:48:04.001Z,78.69
2022-10-11T17:50:40.226Z,78.73
2022-10-11T17:53:11.482Z,79.11
2022-10-11T17:55:43.994Z,79.25
2022-10-11T17:58:15.449Z,79.48
2022-10-11T18:00:46.850Z,79.34
2022-10-11T18:03:18.428Z,79.65
2022-10-11T18:05:49.734Z,79.53
2022-10-11T18:08:21.212Z,79.74
2022-10-11T18:10:52.579Z,79.52
2022-10-11T18:13:23.899Z,79.62
2022-10-11T18:15:55.335Z,79.89
2022-10-11T18:18:26.715Z,79.83
2022-10-11T18:20:58.050Z,79.77
2022-10-11T18:23:29.331Z,80.04
2022-10-11T18:26:08.887Z,80.03
2022-10-11T18:28:41.597Z,80.36
2022-10-11T18:31:17.760Z,80.29
2022-10-11T18:33:50.970Z,80.48
2022-10-11T18:36:25.095Z,80.40
2022-10-11T18:38:59.242Z,80.41
2022-10-11T18:41:32.214Z,80.35
2022-10-11T18:44:06.601Z,80.34
2022-10-11T18:46:37.925Z,80.58
2022-10-11T18:49:09.503Z,80.31
2022-10-11T18:51:41.840Z,80.57
2022-10-11T18:54:16.787Z,80.34
2022-10-11T18:56:51.401Z,80.58
2022-10-11T18:59:22.690Z,80.62
2022-10-11T19:01:53.961Z,80.68
2022-10-11T19:04:25.288Z,80.76
2022-10-11T19:06:56.605Z,80.54
2022-10-11T19:09:28.763Z,80.46
2022-10-11T19:12:00.076Z,80.52
2022-10-11T19:14:31.424Z,80.48
2022-10-11T19:17:02.763Z,80.52
2022-10-11T19:19:34.538Z,80.51
2022-10-11T19:22:06.053Z,80.37
2022-10-11T19:24:37.371Z,80.70
2022-10-11T19:27:08.666Z,80.66
2022-10-11T19:29:39.925Z,81.01
2022-10-11T19:32:11.171Z,81.18
2022-10-11T19:34:42.603Z,81.32
2022-10-11T19:37:14.301Z,81.45
2022-10-11T19:39:45.595Z,81.61
2022-10-11T19:42:16.891Z,81.43
2022-10-11T19:44:48.273Z,81.48
2022-10-11T19:47:19.701Z,81.54
2022-10-11T19:49:50.969Z,81.64
2022-10-11T19:52:22.422Z,81.78
2022-10-11T19:54:53.733Z,81.73
2022-10-11T19:57:24.984Z,81.79
2022-10-11T19:59:56.270Z,81.61
2022-10-11T20:02:27.529Z,82.00
2022-10-11T20:04:58.815Z,81.74
2022-10-11T20:07:30.181Z,81.88
2022-10-11T20:10:01.882Z,82.06
2022-10-11T20:12:33.805Z,81.92
2022-10-11T20:15:05.556Z,82.39
2022-10-11T20:17:49.098Z,82.33
2022-10-11T20:20:20.379Z,82.59
2022-10-11T20:22:53.357Z,82.66
2022-10-11T20:25:24.704Z,82.23
2022-10-11T20:27:55.947Z,82.49
2022-10-11T20:30:27.217Z,82.90
2022-10-11T20:32:58.465Z,82.60
2022-10-11T20:35:29.713Z,82.78
2022-10-11T20:38:00.957Z,83.16
2022-10-11T20:40:32.225Z,83.34
2022-10-11T20:43:03.466Z,83.25
2022-10-11T20:45:34.721Z,83.47
2022-10-11T20:48:05.974Z,83.27
2022-10-11T20:50:37.224Z,83.52
2022-10-11T20:53:10.815Z,83.22
2022-10-11T20:55:46.099Z,83.17
2022-10-11T20:58:18.532Z,83.13
2022-10-11T21:00:49.864Z,83.09
2022-10-11T21:03:21.135Z,83.81
2022-10-11T21:05:59.935Z,83.21
2022-10-11T21:08:31.408Z,83.70
2022-10-11T21:11:03.405Z,83.30
2022-10-11T21:13:35.372Z,83.95
2022-10-11T21:16:11.200Z,83.93
2022-10-11T21:18:42.730Z,83.49
2022-10-11T21:21:14.701Z,83.80
2022-10-11T21:23:46.194Z,83.86
2022-10-11T21:26:20.643Z,83.96
2022-10-11T21:28:52.056Z,83.95
2022-10-11T21:31:23.630Z,83.78
2022-10-11T21:33:54.898Z,83.37
2022-10-11T21:36:26.227Z,84.14
2022-10-11T21:38:57.587Z,83.64
2022-10-11T21:41:29.962Z,83.81
2022-10-11T21:44:01.575Z,83.59
2022-10-11T21:49:25.128Z,84.08
2022-10-11T21:51:56.422Z,83.90
2022-10-11T21:54:27.755Z,84.02
2022-10-11T21:56:59.032Z,84.11
2022-10-11T21:59:30.276Z,84.51
2022-10-11T22:02:02.196Z,84.38
2022-10-11T22:04:33.741Z,84.03
2022-10-11T22:07:05.097Z,83.97
2022-10-11T22:09:36.410Z,84.40
2022-10-11T22:12:07.833Z,84.05
2022-10-11T22:14:39.082Z,84.59
2022-10-11T22:17:10.379Z,84.28
2022-10-11T22:19:41.654Z,84.34
2022-10-11T22:22:12.926Z,84.42
2022-10-11T22:24:44.190Z,84.80
2022-10-11T22:27:15.512Z,84.88
2022-10-11T22:29:46.782Z,84.59
2022-10-11T22:32:18.090Z,84.94
2022-10-11T22:34:49.449Z,84.36
2022-10-11T22:37:20.694Z,84.94
2022-10-11T22:39:51.935Z,84.65
2022-10-11T22:42:27.513Z,84.98
2022-10-11T22:44:59.104Z,84.99
2022-10-11T22:47:30.472Z,84.70
2022-10-11T22:50:01.965Z,85.09
2022-10-11T22:52:33.280Z,84.57
2022-10-11T22:55:04.939Z,84.96
2022-10-11T22:57:36.476Z,85.07
2022-10-11T23:00:08.680Z,84.74
2022-10-11T23:02:39.932Z,84.45
2022-10-11T23:05:11.240Z,84.57
2022-10-11T23:07:42.604Z,85.02
2022-10-11T23:10:14.542Z,84.59
2022-10-11T23:12:45.928Z,84.82
2022-10-11T23:15:17.447Z,84.53
2022-10-11T23:17:48.713Z,85.02
2022-10-11T23:20:19.968Z,85.15
2022-10-11T23:22:51.217Z,84.87
2022-10-11T23:25:22.482Z,85.16
2022-10-11T23:27:53.810Z,84.64
2022-10-11T23:30:25.065Z,85.08
2022-10-11T23:32:56.705Z,84.53
2022-10-11T23:35:28.013Z,84.83
2022-10-11T23:37:59.261Z,84.82
2022-10-11T23:40:30.634Z,84.84
2022-10-11T23:43:02.701Z,84.75
2022-10-11T23:45:33.959Z,85.04
2022-10-11T23:48:05.352Z,85.07
2022-10-11T23:50:36.744Z,85.26
2022-10-11T23:53:08.185Z,85.15
2022-10-11T23:55:40.427Z,84.96
2022-10-11T23:58:11.716Z,84.76
